Time;durP1;ratioP1;P1;durP2;ratioP2;P2;SDS_P1;SDS_P2;PMS_P1;PMS_P2;Temp;Humidity;BMP_temperature;BMP_pressure;BME280_temperature;BME280_humidity;BME280_pressure;Samples;Min_cycle;Max_cycle;Signal;HPM_P1;HPM_P2
2022/05/03 00:00:04;;;;;;;15.00;13.30;;;;;;;12.92;88.08;97934.28;4141319;28;20658;-86
2022/05/03 00:02:18;;;;;;;14.97;13.47;;;;;;;12.89;88.77;97931.09;4133307;28;20646;-86
2022/05/03 00:04:27;;;;;;;15.00;13.47;;;;;;;12.85;87.69;97932.28;4124942;28;20655;-85
2022/05/03 00:06:31;;;;;;;14.50;13.00;;;;;;;12.79;87.46;97936.19;4140131;28;20634;-86
2022/05/03 00:08:39;;;;;;;15.20;13.80;;;;;;;12.76;89.11;97939.06;4134550;28;20649;-86
2022/05/03 00:10:49;;;;;;;15.30;13.90;;;;;;;12.76;88.29;97935.59;4124752;28;20639;-86
2022/05/03 00:12:57;;;;;;;14.00;12.60;;;;;;;12.72;89.25;97934.19;4136060;28;20682;-86
2022/05/03 00:15:01;;;;;;;15.17;13.37;;;;;;;12.68;88.27;97933.56;4132561;28;20754;-86
2022/05/03 00:17:05;;;;;;;15.47;13.83;;;;;;;12.68;88.02;97937.16;4136151;28;20659;-86
2022/05/03 00:19:10;;;;;;;15.30;13.03;;;;;;;12.66;88.80;97933.81;4124237;28;20632;-86
2022/05/03 00:21:13;;;;;;;15.77;14.13;;;;;;;12.63;88.50;97936.69;4123852;28;20662;-86
2022/05/03 00:23:17;;;;;;;15.47;13.87;;;;;;;12.63;88.77;97924.44;4135661;28;21287;-86
2022/05/03 00:25:22;;;;;;;14.93;13.17;;;;;;;12.60;89.55;97927.31;4140477;28;20722;-85
2022/05/03 00:27:26;;;;;;;15.03;13.53;;;;;;;12.58;89.03;97923.97;4135494;28;20635;-87
2022/05/03 00:29:30;;;;;;;14.90;13.40;;;;;;;12.55;88.78;97926.81;4131518;28;20638;-86
2022/05/03 00:31:33;;;;;;;14.47;13.07;;;;;;;12.53;87.36;97923.50;4138656;28;20631;-86
2022/05/03 00:33:37;;;;;;;14.40;12.90;;;;;;;12.52;87.55;97926.22;4147011;28;21708;-86
2022/05/03 00:35:41;;;;;;;15.70;14.00;;;;;;;12.53;87.08;97927.91;4135707;28;20730;-86
2022/05/03 00:37:44;;;;;;;14.70;13.30;;;;;;;12.52;87.42;97921.00;4131564;28;20741;-86
2022/05/03 00:39:47;;;;;;;18.00;14.00;;;;;;;12.47;88.61;97923.97;4139068;28;20635;-86
2022/05/03 00:41:57;;;;;;;15.73;14.13;;;;;;;12.44;88.45;97923.41;4135071;28;21027;-86
2022/05/03 00:44:55;;;;;;;15.03;13.43;;;;;;;12.42;87.48;97931.38;4132989;28;20624;-86
2022/05/03 00:46:32;;;;;;;16.67;14.73;;;;;;;12.38;88.44;97927.31;4136357;28;21119;-86
2022/05/03 00:48:49;;;;;;;16.47;13.53;;;;;;;12.36;88.39;97928.41;4123638;28;20636;-86
2022/05/03 00:50:58;;;;;;;16.53;13.47;;;;;;;12.33;88.37;97919.00;4135651;28;20628;-86
2022/05/03 00:53:09;;;;;;;14.57;13.07;;;;;;;12.33;87.57;97920.78;4125396;28;20659;-86
2022/05/03 00:55:27;;;;;;;14.13;12.77;;;;;;;12.32;87.97;97922.56;4137827;28;20770;-86
2022/05/03 00:57:38;;;;;;;16.10;14.50;;;;;;;12.31;87.56;97920.06;4134996;28;21012;-86
2022/05/03 00:59:56;;;;;;;14.50;13.00;;;;;;;12.24;88.85;97922.31;4131181;28;20643;-86
2022/05/03 01:02:04;;;;;;;15.63;14.03;;;;;;;12.16;88.07;97918.63;4132094;28;20709;-86
2022/05/03 01:04:21;;;;;;;18.87;16.87;;;;;;;12.05;86.64;97918.63;4133219;28;20733;-86
2022/05/03 01:06:33;;;;;;;15.60;14.00;;;;;;;11.94;86.49;97925.66;4146704;28;20639;-86
2022/05/03 01:08:47;;;;;;;16.63;14.37;;;;;;;11.83;88.30;97917.78;4138701;28;20641;-86
2022/05/03 01:11:01;;;;;;;15.43;13.83;;;;;;;11.78;88.23;97923.34;4148423;28;20629;-86
2022/05/03 01:13:10;;;;;;;15.77;14.17;;;;;;;11.78;87.21;97917.31;4137479;28;20678;-86
2022/05/03 01:15:19;;;;;;;15.53;13.20;;;;;;;11.76;87.91;97920.03;4139215;28;20679;-86
2022/05/03 01:17:28;;;;;;;15.80;14.30;;;;;;;11.75;87.50;97919.31;4131499;28;20664;-85
2022/05/03 01:19:48;;;;;;;15.80;14.10;;;;;;;11.75;87.97;97911.47;4128882;28;20638;-86
2022/05/03 01:22:05;;;;;;;15.53;13.77;;;;;;;11.76;89.05;97904.34;4116161;28;21074;-86
2022/05/03 01:24:25;;;;;;;14.70;13.20;;;;;;;11.74;88.82;97910.63;4134196;28;20639;-85
2022/05/03 01:27:16;;;;;;;17.67;13.60;;;;;;;11.75;89.44;97924.53;4132559;28;20631;-86
2022/05/03 01:29:31;;;;;;;14.73;13.30;;;;;;;11.74;89.12;97928.09;4131765;28;20679;-86
2022/05/03 01:31:36;;;;;;;13.87;12.53;;;;;;;11.70;88.39;97919.66;4131805;28;20639;-86
2022/05/03 01:33:43;;;;;;;14.87;13.30;;;;;;;11.70;88.71;97922.28;4134498;28;20691;-86
2022/05/03 01:35:47;;;;;;;13.80;12.47;;;;;;;11.69;89.92;97923.22;4137608;28;20631;-85
2022/05/03 01:38:07;;;;;;;15.40;13.40;;;;;;;11.67;89.90;97919.91;4132583;28;20628;-85
2022/05/03 01:40:13;;;;;;;15.30;12.50;;;;;;;11.63;88.02;97922.84;4132021;28;21209;-85
2022/05/03 01:42:24;;;;;;;14.90;12.77;;;;;;;11.61;89.70;97917.75;4134204;28;20687;-85
2022/05/03 01:44:37;;;;;;;14.70;12.83;;;;;;;11.57;88.78;97918.09;4131191;28;20686;-86
2022/05/03 01:46:40;;;;;;;13.60;12.20;;;;;;;11.54;89.57;97916.53;4136198;28;20757;-86
2022/05/03 01:51:23;;;;;;;16.80;13.57;;;;;;;11.50;89.83;97912.50;4131185;28;20635;-86
2022/05/03 01:53:31;;;;;;;14.30;12.83;;;;;;;11.48;89.79;97908.34;4113965;28;20652;-86
2022/05/03 01:56:05;;;;;;;14.30;12.80;;;;;;;11.44;89.25;97901.63;4136621;28;20656;-86
2022/05/03 01:58:16;;;;;;;13.70;12.40;;;;;;;11.44;89.47;97912.94;4135720;28;20665;-86
2022/05/03 02:00:22;;;;;;;14.90;13.30;;;;;;;11.43;90.06;97903.41;4134516;28;20677;-85
2022/05/03 02:02:27;;;;;;;14.53;13.03;;;;;;;11.39;88.88;97903.75;4133137;28;20652;-86
2022/05/03 02:04:45;;;;;;;14.03;12.73;;;;;;;11.34;88.88;97911.94;4134570;28;20748;-86
2022/05/03 02:06:56;;;;;;;13.43;12.13;;;;;;;11.34;89.08;97911.09;4124194;28;20626;-85
2022/05/03 02:09:03;;;;;;;13.77;12.27;;;;;;;11.27;88.44;97909.88;4135017;28;20631;-85
2022/05/03 02:11:37;;;;;;;13.93;12.53;;;;;;;11.15;88.45;97908.19;4133203;28;20744;-85
2022/05/03 02:16:15;;;;;;;14.00;12.53;;;;;;;11.08;88.43;97901.75;4154677;28;20635;-86
2022/05/03 02:18:23;;;;;;;14.67;13.17;;;;;;;11.06;88.63;97906.25;4135650;28;21061;-85
2022/05/03 02:20:36;;;;;;;14.17;12.67;;;;;;;11.08;88.61;97906.97;4133592;28;20617;-86
2022/05/03 02:23:17;;;;;;;13.83;12.43;;;;;;;11.12;90.17;97907.59;4137072;28;20646;-86
2022/05/03 02:25:26;;;;;;;13.57;12.27;;;;;;;11.07;88.73;97907.09;4119444;28;20652;-85
2022/05/03 02:27:32;;;;;;;13.30;11.90;;;;;;;11.01;89.03;97910.97;4136124;28;20638;-85
2022/05/03 02:29:41;;;;;;;13.93;12.47;;;;;;;11.01;89.46;97908.38;4141124;28;20637;-86
2022/05/03 02:31:49;;;;;;;13.13;11.83;;;;;;;10.99;88.70;97904.19;4141732;28;21190;-85
2022/05/03 02:33:56;;;;;;;13.77;12.30;;;;;;;11.01;89.64;97907.53;4137478;28;20641;-85
2022/05/03 02:36:00;;;;;;;14.17;12.67;;;;;;;11.01;90.19;97912.75;4139583;28;20713;-86
2022/05/03 02:38:05;;;;;;;14.07;12.67;;;;;;;11.00;89.77;97913.69;4139253;28;20654;-86
2022/05/03 02:40:11;;;;;;;13.50;12.10;;;;;;;10.98;89.71;97920.81;4144728;28;20633;-86
2022/05/03 02:42:15;;;;;;;14.40;12.90;;;;;;;10.99;89.55;97912.00;4137245;28;20641;-86
2022/05/03 02:44:19;;;;;;;13.33;11.93;;;;;;;10.96;89.17;97915.69;4140697;28;20723;-85
2022/05/03 02:46:37;;;;;;;13.83;12.43;;;;;;;10.91;88.87;97912.56;4129722;28;20693;-85
2022/05/03 02:48:50;;;;;;;13.07;11.63;;;;;;;10.96;90.65;97913.09;4136140;28;20644;-86
2022/05/03 02:50:54;;;;;;;13.23;11.93;;;;;;;10.92;89.57;97908.22;4139804;28;20646;-85
2022/05/03 02:53:02;;;;;;;12.73;11.43;;;;;;;10.92;89.91;97916.03;4139608;28;21673;-85
2022/05/03 02:55:09;;;;;;;14.17;12.60;;;;;;;10.92;90.19;97908.22;4138674;28;21089;-86
2022/05/03 02:57:19;;;;;;;13.97;12.57;;;;;;;10.88;89.30;97912.81;4122505;28;20753;-86
2022/05/03 03:01:47;;;;;;;13.83;12.20;;;;;;;10.86;89.51;97909.47;4139775;28;20698;-86
2022/05/03 03:01:57;;;;;;;13.67;11.93;;;;;;;10.83;89.95;97906.25;4137838;28;20642;-86
2022/05/03 03:04:06;;;;;;;12.30;11.10;;;;;;;10.81;89.57;97911.59;4135365;28;20664;-86
2022/05/03 03:06:18;;;;;;;13.80;12.40;;;;;;;10.81;89.47;97906.38;4135019;28;20718;-86
2022/05/03 03:08:23;;;;;;;14.00;12.50;;;;;;;10.80;90.00;97909.09;4138584;28;20649;-86
2022/05/03 03:10:32;;;;;;;13.00;11.70;;;;;;;10.79;89.34;97903.97;4142537;28;20661;-86
2022/05/03 03:12:45;;;;;;;13.97;12.60;;;;;;;10.76;89.69;97909.41;4146662;28;20620;-85
2022/05/03 03:14:49;;;;;;;13.60;12.20;;;;;;;10.76;89.22;97906.81;4138065;28;20638;-86
2022/05/03 03:16:55;;;;;;;12.80;11.50;;;;;;;10.77;89.93;97905.88;4138256;28;20672;-86
2022/05/03 03:18:59;;;;;;;13.20;11.80;;;;;;;10.74;90.04;97906.91;4136233;28;20633;-85
2022/05/03 03:21:06;;;;;;;12.70;11.40;;;;;;;10.75;90.46;97906.00;4138769;28;20645;-86
2022/05/03 03:23:14;;;;;;;12.30;11.10;;;;;;;10.74;90.48;97895.66;4147016;28;20671;-86
2022/05/03 03:25:20;;;;;;;15.70;12.70;;;;;;;10.72;90.61;97906.22;4129716;28;20751;-86
2022/05/03 03:27:24;;;;;;;14.03;12.23;;;;;;;10.71;89.66;97908.94;4132264;28;20637;-86
2022/05/03 03:29:28;;;;;;;13.80;12.40;;;;;;;10.70;90.71;97902.03;4139723;28;21090;-86
2022/05/03 03:31:32;;;;;;;12.80;11.47;;;;;;;10.71;90.55;97899.31;4151436;28;20643;-85
2022/05/03 03:33:37;;;;;;;13.20;11.80;;;;;;;10.67;90.13;97902.25;4139849;28;21178;-85
2022/05/03 03:35:42;;;;;;;12.70;11.43;;;;;;;10.57;89.31;97909.06;4134188;28;20630;-86
2022/05/03 03:37:48;;;;;;;13.47;11.73;;;;;;;10.48;88.79;97894.09;4147993;28;20691;-86
2022/05/03 03:39:55;;;;;;;13.03;11.40;;;;;;;10.44;88.32;97897.84;4139310;28;20641;-86
2022/05/03 03:42:00;;;;;;;14.73;12.07;;;;;;;10.45;89.74;97894.31;4138734;28;20646;-85
2022/05/03 03:44:05;;;;;;;13.13;11.73;;;;;;;10.46;89.09;97891.59;4139840;28;20653;-86
2022/05/03 03:46:09;;;;;;;13.17;11.63;;;;;;;10.43;89.45;97896.16;4134640;28;20733;-86
2022/05/03 03:48:12;;;;;;;13.77;12.47;;;;;;;10.43;89.61;97889.22;4132997;28;20645;-86
2022/05/03 03:50:16;;;;;;;13.57;12.13;;;;;;;10.46;90.24;97893.34;4119085;28;20731;-86
2022/05/03 03:52:19;;;;;;;13.40;12.00;;;;;;;10.45;90.02;97899.53;4139302;28;20633;-86
2022/05/03 03:54:25;;;;;;;13.07;11.60;;;;;;;10.44;90.03;97903.06;4132400;28;20673;-86
2022/05/03 03:56:28;;;;;;;13.67;12.20;;;;;;;10.44;89.94;97900.47;4132859;28;20638;-86
2022/05/03 03:58:32;;;;;;;13.43;12.13;;;;;;;10.45;89.88;97899.53;4142335;28;21189;-85
2022/05/03 04:00:35;;;;;;;13.33;11.87;;;;;;;10.44;89.88;97903.06;4126340;28;20739;-86
2022/05/03 04:02:40;;;;;;;16.47;12.13;;;;;;;10.43;90.27;97901.38;4141339;28;20622;-86
2022/05/03 04:04:44;;;;;;;12.23;11.03;;;;;;;10.41;89.45;97898.06;4137906;28;21015;-86
2022/05/03 04:06:48;;;;;;;13.67;12.10;;;;;;;10.41;89.47;97900.66;4142244;28;20989;-86
2022/05/03 04:08:51;;;;;;;13.50;12.20;;;;;;;10.41;89.73;97901.50;4128924;28;20644;-86
2022/05/03 04:10:55;;;;;;;13.30;11.90;;;;;;;10.42;89.50;97903.16;4138646;28;20646;-86
2022/05/03 04:12:58;;;;;;;13.30;11.90;;;;;;;10.45;90.41;97904.75;4127087;28;20717;-86
2022/05/03 04:15:02;;;;;;;14.57;12.07;;;;;;;10.45;90.27;97896.91;4132682;28;20677;-85
2022/05/03 04:17:05;;;;;;;12.93;11.63;;;;;;;10.45;90.35;97900.34;4139068;28;20667;-86
2022/05/03 04:19:08;;;;;;;15.00;12.57;;;;;;;10.43;90.26;97901.38;4135863;28;20633;-86
2022/05/03 04:21:14;;;;;;;12.40;11.10;;;;;;;10.40;89.64;97901.59;4146333;28;20737;-86
2022/05/03 04:23:23;;;;;;;14.10;10.70;;;;;;;10.33;88.00;97900.38;4133772;28;20634;-85
2022/05/03 04:25:33;;;;;;;17.93;10.93;;;;;;;10.28;87.47;97902.47;4140864;28;20648;-86
2022/05/03 04:27:38;;;;;;;11.40;10.20;;;;;;;10.20;86.76;97902.19;4140045;28;20630;-85
2022/05/03 04:29:41;;;;;;;12.67;10.20;;;;;;;10.19;87.06;97912.72;4151946;28;20631;-86
2022/05/03 04:31:45;;;;;;;12.30;11.00;;;;;;;10.18;87.12;97916.25;4150298;28;20648;-86
2022/05/03 04:33:48;;;;;;;13.70;11.33;;;;;;;10.22;87.95;97915.91;4140316;28;20619;-86
2022/05/03 04:35:54;;;;;;;14.73;12.27;;;;;;;10.29;88.30;97911.13;4139240;28;20639;-86
2022/05/03 04:37:57;;;;;;;14.00;11.13;;;;;;;10.34;88.68;97917.66;4142250;28;21063;-86
2022/05/03 04:40:01;;;;;;;12.87;11.60;;;;;;;10.37;89.34;97915.72;4128427;28;20641;-86
2022/05/03 04:42:05;;;;;;;13.90;11.67;;;;;;;10.44;89.66;97916.91;4139737;28;20633;-86
2022/05/03 04:44:10;;;;;;;12.93;11.63;;;;;;;10.52;90.50;97917.19;4139587;28;20628;-86
2022/05/03 04:46:14;;;;;;;13.20;11.80;;;;;;;10.58;90.30;97923.78;4135135;28;20645;-86
2022/05/03 04:48:17;;;;;;;13.50;11.83;;;;;;;10.65;89.78;97923.22;4124423;28;20684;-86
2022/05/03 04:50:20;;;;;;;12.60;11.30;;;;;;;10.68;89.60;97927.41;4152740;28;20682;-86
2022/05/03 04:52:24;;;;;;;12.87;11.33;;;;;;;10.69;89.34;97931.66;4137655;28;20629;-86
2022/05/03 04:54:27;;;;;;;18.50;10.53;;;;;;;10.65;88.35;97930.22;4135455;28;22303;-86
2022/05/03 04:56:30;;;;;;;12.23;11.03;;;;;;;10.64;88.57;97928.56;4121529;28;20628;-85
2022/05/03 04:58:34;;;;;;;12.77;11.37;;;;;;;10.63;88.32;97932.94;4139214;28;20644;-85
2022/05/03 05:00:38;;;;;;;14.10;12.53;;;;;;;10.69;88.46;97939.47;4131997;28;20648;-85
2022/05/03 05:02:42;;;;;;;14.63;12.93;;;;;;;10.74;88.31;97946.03;4138941;28;21122;-85
2022/05/03 05:04:45;;;;;;;14.77;12.50;;;;;;;10.81;88.36;97950.72;4142500;28;20719;-86
2022/05/03 05:06:49;;;;;;;13.57;12.17;;;;;;;10.83;88.92;97951.44;4138645;28;20621;-85
2022/05/03 05:08:56;;;;;;;14.63;12.20;;;;;;;10.81;89.00;97952.50;4148231;28;20637;-85
2022/05/03 05:10:59;;;;;;;15.37;11.10;;;;;;;10.80;88.16;97950.00;4145816;28;20666;-85
2022/05/03 05:13:02;;;;;;;16.00;11.93;;;;;;;10.80;88.62;97954.25;4139310;28;20637;-86
2022/05/03 05:15:12;;;;;;;14.03;11.87;;;;;;;10.83;88.71;97959.25;4126044;28;20689;-86
2022/05/03 05:17:17;;;;;;;13.57;12.10;;;;;;;10.87;88.98;97958.09;4137731;28;20666;-87
2022/05/03 05:19:20;;;;;;;14.43;12.93;;;;;;;10.93;89.49;97959.44;4136582;28;21278;-86
2022/05/03 05:21:23;;;;;;;17.57;13.47;;;;;;;11.00;89.54;97964.09;4141689;28;21283;-86
2022/05/03 05:23:27;;;;;;;18.67;13.00;;;;;;;11.11;90.25;97961.56;4137502;28;20670;-85
2022/05/03 05:25:31;;;;;;;15.00;13.07;;;;;;;11.29;89.53;97960.22;4149924;28;20700;-86
2022/05/03 05:27:34;;;;;;;14.70;12.80;;;;;;;11.50;90.73;97963.88;4137712;28;20649;-85
2022/05/03 05:29:37;;;;;;;15.80;13.83;;;;;;;11.74;89.85;97967.28;4133094;28;20649;-85
2022/05/03 05:31:41;;;;;;;14.43;12.63;;;;;;;11.95;88.59;97972.56;4139894;28;20733;-84
2022/05/03 05:33:45;;;;;;;13.37;11.97;;;;;;;12.17;87.47;97956.91;4134066;28;20633;-85
2022/05/03 05:35:49;;;;;;;16.83;12.20;;;;;;;12.42;86.84;97967.16;4133782;28;20640;-85
2022/05/03 05:37:52;;;;;;;14.20;12.70;;;;;;;12.69;87.06;97958.81;4137248;28;21145;-85
2022/05/03 05:39:55;;;;;;;14.50;13.00;;;;;;;12.92;84.84;97963.06;4119903;28;20788;-85
2022/05/03 05:42:01;;;;;;;15.50;13.90;;;;;;;13.18;84.34;97965.28;4136114;28;20623;-85
2022/05/03 05:44:05;;;;;;;13.20;11.90;;;;;;;13.44;83.41;97968.38;4129369;28;20737;-86
2022/05/03 05:46:08;;;;;;;14.37;12.77;;;;;;;13.64;84.05;97969.25;4132767;28;20654;-84
2022/05/03 05:48:12;;;;;;;13.13;11.83;;;;;;;13.89;82.88;97974.16;4131140;28;20672;-85
2022/05/03 05:50:17;;;;;;;13.07;11.77;;;;;;;14.08;81.89;97968.22;4140408;28;20635;-85
2022/05/03 05:54:41;;;;;;;13.93;12.10;;;;;;;14.46;80.53;97964.00;4136558;28;20774;-85
2022/05/03 05:56:45;;;;;;;12.77;11.47;;;;;;;14.62;79.65;97971.25;4123908;28;20645;-87
2022/05/03 05:58:48;;;;;;;12.83;11.63;;;;;;;14.80;80.66;97968.84;4141690;28;20683;-85
2022/05/03 06:00:51;;;;;;;13.10;11.80;;;;;;;14.95;79.27;97972.75;4128094;28;20651;-85
2022/05/03 06:02:54;;;;;;;13.03;11.77;;;;;;;15.11;78.35;97979.16;4139005;28;20651;-85
2022/05/03 06:04:58;;;;;;;13.20;11.83;;;;;;;15.28;79.19;97978.50;4134776;28;20715;-85
2022/05/03 06:07:03;;;;;;;12.73;11.60;;;;;;;15.39;77.98;97986.28;4146444;28;20724;-85
2022/05/03 06:09:06;;;;;;;12.77;11.30;;;;;;;15.57;79.23;97983.66;4140485;28;20644;-86
2022/05/03 06:11:10;;;;;;;13.40;12.10;;;;;;;15.73;77.16;97994.44;4136406;28;20623;-84
2022/05/03 06:13:15;;;;;;;13.77;11.10;;;;;;;15.88;76.95;97984.34;4131071;28;20628;-87
2022/05/03 06:15:20;;;;;;;13.70;10.60;;;;;;;16.03;76.60;97983.78;4139168;28;20644;-87
2022/05/03 06:17:23;;;;;;;11.83;10.63;;;;;;;16.19;74.83;97984.00;4120096;28;21241;-84
2022/05/03 06:19:26;;;;;;;12.50;11.30;;;;;;;16.35;76.54;97982.47;4136130;28;20648;-84
2022/05/03 06:21:30;;;;;;;12.83;11.43;;;;;;;16.53;77.36;97988.66;4140143;28;20688;-84
2022/05/03 06:23:35;;;;;;;11.87;10.80;;;;;;;16.69;75.13;97981.00;4129234;28;20629;-84
2022/05/03 06:25:38;;;;;;;12.50;11.20;;;;;;;16.86;74.62;97986.31;4135615;28;20753;-84
2022/05/03 06:27:42;;;;;;;13.60;12.23;;;;;;;17.04;75.38;97988.03;4139343;28;20987;-84
2022/05/03 06:29:51;;;;;;;13.23;11.30;;;;;;;17.20;73.88;97988.25;4149144;28;20625;-84
2022/05/03 06:31:55;;;;;;;12.73;11.47;;;;;;;17.36;74.10;97993.69;4136526;28;20738;-84
2022/05/03 06:34:05;;;;;;;13.00;11.80;;;;;;;17.54;73.61;97992.72;4143688;28;20808;-84
2022/05/03 06:36:09;;;;;;;11.90;10.80;;;;;;;17.69;74.22;97985.13;4143392;28;20642;-84
2022/05/03 06:38:12;;;;;;;12.37;11.07;;;;;;;17.95;74.62;97992.13;4137782;28;20721;-84
2022/05/03 06:40:17;;;;;;;11.37;10.27;;;;;;;18.16;73.81;97995.28;4140704;28;20662;-85
2022/05/03 06:42:20;;;;;;;12.03;10.97;;;;;;;18.39;74.47;97992.00;4141665;28;20642;-84
2022/05/03 06:44:24;;;;;;;12.47;11.27;;;;;;;18.56;73.55;97994.59;4138331;28;20638;-84
2022/05/03 06:46:28;;;;;;;12.53;11.37;;;;;;;18.72;71.54;97993.84;4125742;28;20690;-84
2022/05/03 06:48:31;;;;;;;11.93;10.30;;;;;;;18.78;70.74;97991.41;4149307;28;20634;-83
2022/05/03 06:50:34;;;;;;;12.53;11.33;;;;;;;18.87;71.23;97993.13;4121862;28;21179;-87
2022/05/03 06:52:38;;;;;;;12.90;11.70;;;;;;;18.99;70.80;97997.16;4154932;28;20700;-86
2022/05/03 06:54:41;;;;;;;13.30;11.60;;;;;;;19.19;71.57;97999.38;4137988;28;20662;-86
2022/05/03 06:56:46;;;;;;;31.07;28.03;;;;;;;19.37;71.20;98005.41;4141123;28;20638;-86
2022/05/03 06:58:49;;;;;;;12.70;11.50;;;;;;;19.52;71.75;98001.97;4140135;28;20630;-85
2022/05/03 07:00:52;;;;;;;12.90;11.60;;;;;;;19.70;71.74;98004.50;4135027;28;20618;-87
2022/05/03 07:02:55;;;;;;;11.43;10.23;;;;;;;19.90;70.46;98012.00;4135681;28;20634;-87
2022/05/03 07:05:00;;;;;;;11.80;10.60;;;;;;;20.07;70.74;98008.34;4124529;28;20643;-87
2022/05/03 07:07:03;;;;;;;11.50;10.50;;;;;;;20.23;71.28;98011.03;4140120;28;20642;-90
2022/05/03 07:09:07;;;;;;;11.50;10.40;;;;;;;20.33;68.39;98005.38;4134000;28;20660;-85
2022/05/03 07:11:10;;;;;;;12.27;9.63;;;;;;;20.45;68.70;98013.84;4138613;28;20700;-83
2022/05/03 07:13:15;;;;;;;10.50;9.53;;;;;;;20.57;68.18;98005.34;4134306;28;20688;-83
2022/05/03 07:15:19;;;;;;;9.90;9.00;;;;;;;20.69;67.21;98005.84;4134671;28;20657;-85
2022/05/03 07:24:25;;;;;;;8.93;8.00;;;;;;;21.06;65.88;98004.25;4137000;28;20623;-85
2022/05/03 07:26:37;;;;;;;9.20;8.20;;;;;;;21.15;66.55;98011.19;4132075;28;21208;-85
2022/05/03 07:28:42;;;;;;;10.33;9.43;;;;;;;21.22;66.44;98005.03;4135421;28;20616;-85
2022/05/03 07:30:45;;;;;;;9.27;8.47;;;;;;;21.46;67.65;98013.72;4141994;28;20618;-85
2022/05/03 07:32:49;;;;;;;9.37;8.47;;;;;;;21.64;65.39;98008.16;4140383;28;20733;-85
2022/05/03 07:34:52;;;;;;;11.27;10.07;;;;;;;21.77;65.45;98003.94;4128096;28;20640;-85
2022/05/03 07:36:56;;;;;;;9.90;8.90;;;;;;;21.92;65.30;98007.47;4142477;28;20642;-85
2022/05/03 07:38:59;;;;;;;10.47;9.40;;;;;;;22.04;66.05;98008.72;4136256;28;20716;-85
2022/05/03 07:41:02;;;;;;;10.93;9.93;;;;;;;22.13;66.62;98012.97;4138009;28;21643;-85
2022/05/03 07:43:06;;;;;;;10.33;9.33;;;;;;;22.25;64.44;98018.53;4141700;28;20642;-85
2022/05/03 07:45:11;;;;;;;10.67;9.67;;;;;;;22.37;66.26;98022.44;4141244;28;20665;-84
2022/05/03 07:47:14;;;;;;;11.40;10.30;;;;;;;22.42;64.71;98012.09;4140879;28;20718;-85
2022/05/03 07:49:17;;;;;;;10.77;9.63;;;;;;;22.46;65.29;98015.19;4145187;28;20626;-85
2022/05/03 07:51:21;;;;;;;9.90;8.90;;;;;;;22.40;64.65;98014.09;4135454;28;20732;-85
2022/05/03 07:53:24;;;;;;;14.57;12.97;;;;;;;22.46;65.30;98016.03;4121549;28;20663;-85
2022/05/03 07:55:28;;;;;;;10.30;9.23;;;;;;;22.56;63.65;98021.09;4128342;28;20651;-85
2022/05/03 07:57:31;;;;;;;10.50;9.50;;;;;;;22.62;63.03;98009.75;4149123;28;21358;-84
2022/05/03 07:59:34;;;;;;;9.97;9.07;;;;;;;22.67;63.12;98016.16;4142418;28;21296;-86
2022/05/03 08:01:41;;;;;;;9.90;9.10;;;;;;;22.75;63.67;98013.44;4131953;28;20620;-85
2022/05/03 08:03:44;;;;;;;10.20;9.30;;;;;;;22.74;61.96;98009.09;4124478;28;20659;-85
2022/05/03 08:05:47;;;;;;;10.53;9.53;;;;;;;22.71;64.42;98014.78;4154297;28;20637;-85
2022/05/03 08:07:51;;;;;;;10.00;9.10;;;;;;;22.84;67.27;98007.03;4140067;28;20705;-85
2022/05/03 08:09:54;;;;;;;9.73;8.83;;;;;;;22.96;65.65;98016.25;4123328;28;20691;-84
2022/05/03 08:11:58;;;;;;;8.80;8.00;;;;;;;23.10;65.53;98018.88;4132543;28;20722;-85
2022/05/03 08:14:01;;;;;;;8.67;7.87;;;;;;;23.04;60.61;98013.47;4142550;28;20645;-84
2022/05/03 08:16:05;;;;;;;8.30;7.60;;;;;;;23.11;63.30;98017.03;4139773;28;21222;-85
2022/05/03 08:18:09;;;;;;;9.13;8.30;;;;;;;23.21;62.82;98015.75;4143695;28;20654;-85
2022/05/03 08:20:14;;;;;;;9.03;8.13;;;;;;;23.32;62.67;98015.31;4133419;28;20734;-86
2022/05/03 08:22:18;;;;;;;9.77;8.77;;;;;;;23.37;63.72;98021.72;4139318;28;20659;-85
2022/05/03 08:24:21;;;;;;;8.47;7.67;;;;;;;23.46;63.28;98023.25;4139948;28;20632;-85
2022/05/03 08:26:24;;;;;;;8.73;8.00;;;;;;;23.53;63.45;98023.34;4136419;28;20634;-86
2022/05/03 08:28:28;;;;;;;19.47;17.57;;;;;;;23.54;62.00;98025.00;4137710;28;21086;-85
2022/05/03 08:30:31;;;;;;;8.63;7.73;;;;;;;23.47;59.95;98019.59;4136258;28;20628;-86
2022/05/03 08:32:34;;;;;;;7.77;7.07;;;;;;;23.49;62.42;98024.75;4134728;28;20710;-85
2022/05/03 08:34:39;;;;;;;8.20;7.40;;;;;;;23.52;60.45;98022.53;4139547;28;20630;-84
2022/05/03 08:42:01;;;;;;;7.67;6.97;;;;;;;23.60;60.67;98026.91;4143390;28;20685;-85
2022/05/03 08:44:02;;;;;;;33.57;10.00;;;;;;;24.03;62.52;98026.84;4129469;28;20658;-86
2022/05/03 08:46:06;;;;;;;7.73;7.00;;;;;;;24.15;61.03;98025.31;4134675;28;21306;-86
2022/05/03 08:48:10;;;;;;;7.70;7.10;;;;;;;24.26;61.42;98021.09;4137052;28;20750;-86
2022/05/03 08:50:19;;;;;;;6.23;5.63;;;;;;;24.31;59.47;98026.72;4143709;28;20725;-86
2022/05/03 08:52:24;;;;;;;7.20;6.60;;;;;;;24.33;59.16;98023.88;4141293;28;20638;-86
2022/05/03 08:54:27;;;;;;;8.80;7.07;;;;;;;24.33;59.99;98029.22;4140867;28;20708;-86
2022/05/03 08:56:30;;;;;;;6.60;6.00;;;;;;;24.37;58.28;98028.66;4136356;28;20620;-86
2022/05/03 08:58:34;;;;;;;7.23;6.50;;;;;;;24.41;59.91;98026.41;4137742;28;21243;-85
2022/05/03 09:00:38;;;;;;;7.10;6.40;;;;;;;24.60;60.17;98017.72;4137922;28;21288;-86
2022/05/03 09:02:44;;;;;;;7.17;6.57;;;;;;;24.73;60.23;98016.84;4134640;28;20745;-86
2022/05/03 09:04:48;;;;;;;7.80;6.97;;;;;;;24.90;61.17;98012.03;4136746;28;21333;-85
2022/05/03 09:06:53;;;;;;;7.07;6.47;;;;;;;24.98;60.30;98018.03;4131714;28;20631;-87
2022/05/03 09:08:57;;;;;;;17.80;6.03;;;;;;;25.00;58.48;98007.19;4136055;28;20631;-86
2022/05/03 09:11:00;;;;;;;6.87;6.20;;;;;;;25.04;59.66;98005.78;4136580;28;20737;-85
2022/05/03 09:13:22;;;;;;;6.77;5.93;;;;;;;25.09;58.84;98006.81;4131320;28;20666;-86
2022/05/03 09:15:32;;;;;;;6.60;6.00;;;;;;;25.03;59.17;98010.28;4131550;28;20713;-85
2022/05/03 09:17:40;;;;;;;7.20;5.97;;;;;;;25.04;57.49;98000.44;4135661;28;20622;-86
2022/05/03 09:19:43;;;;;;;6.10;5.60;;;;;;;25.08;55.87;98007.00;4135532;28;20635;-86
2022/05/03 09:24:10;;;;;;;6.47;5.87;;;;;;;25.02;58.53;98008.63;4135545;28;20631;-86
2022/05/03 09:26:15;;;;;;;6.60;6.00;;;;;;;25.12;58.36;98005.59;4142238;28;21231;-86
2022/05/03 09:28:21;;;;;;;6.00;5.50;;;;;;;25.23;56.27;98006.72;4135096;28;20721;-85
2022/05/03 09:30:25;;;;;;;7.17;6.17;;;;;;;25.30;57.25;98004.06;4135310;28;21093;-86
2022/05/03 09:32:35;;;;;;;7.37;6.67;;;;;;;25.39;57.02;98005.53;4135973;28;20639;-86
2022/05/03 09:34:39;;;;;;;6.13;5.63;;;;;;;25.55;57.09;97998.00;4140436;28;20700;-86
2022/05/03 09:36:44;;;;;;;6.50;6.00;;;;;;;25.70;56.44;98001.41;4139703;28;21523;-86
2022/05/03 09:39:07;;;;;;;5.93;5.43;;;;;;;25.76;56.31;98003.25;4145032;28;21010;-85
2022/05/03 09:41:15;;;;;;;5.50;5.00;;;;;;;25.82;57.95;97999.78;4140146;28;20647;-83
2022/05/03 09:43:19;;;;;;;6.20;5.53;;;;;;;25.83;57.76;98001.41;4137412;28;20654;-84
2022/05/03 09:45:24;;;;;;;5.30;4.90;;;;;;;25.81;57.11;97998.94;4135360;28;20724;-83
2022/05/03 09:47:28;;;;;;;6.13;5.50;;;;;;;25.95;55.48;97999.81;4151722;28;20665;-84
2022/05/03 09:49:35;;;;;;;6.87;5.63;;;;;;;26.06;57.08;97993.88;4135564;28;21236;-86
2022/05/03 09:51:38;;;;;;;5.97;5.37;;;;;;;26.04;51.88;98003.94;4124865;28;20640;-86
2022/05/03 09:53:42;;;;;;;8.47;5.83;;;;;;;26.10;56.06;97996.75;4127448;28;20678;-86
2022/05/03 09:55:48;;;;;;;6.23;5.67;;;;;;;26.25;52.90;98000.06;4122951;28;20718;-86
2022/05/03 09:57:53;;;;;;;7.57;5.57;;;;;;;26.30;53.33;97994.16;4133992;28;21072;-84
2022/05/03 09:59:57;;;;;;;7.73;5.60;;;;;;;26.25;52.81;98001.91;4139170;28;20630;-83
2022/05/03 10:02:00;;;;;;;6.63;6.03;;;;;;;26.29;53.60;97990.63;4136234;28;20746;-84
2022/05/03 10:04:05;;;;;;;5.00;4.60;;;;;;;26.34;53.36;97984.66;4133463;28;20661;-84
2022/05/03 10:06:11;;;;;;;6.47;5.87;;;;;;;26.41;55.88;97985.50;4129860;28;20639;-83